Time;durP1;ratioP1;P1;durP2;ratioP2;P2;SDS_P1;SDS_P2;PMS_P1;PMS_P2;Temp;Humidity;BMP_temperature;BMP_pressure;BME280_temperature;BME280_humidity;BME280_pressure;Samples;Min_cycle;Max_cycle;Signal;HPM_P1;HPM_P2
2023/11/04 00:01:59;;;;;;;4.88;1.40;;;7.00;99.90;;;;;;5050264;28;20148;-81
2023/11/04 00:04:26;;;;;;;4.03;1.85;;;7.00;99.90;;;;;;5046042;28;20046;-81
2023/11/04 00:06:53;;;;;;;4.35;1.50;;;6.90;99.90;;;;;;5033292;28;20045;-82
2023/11/04 00:09:19;;;;;;;4.70;1.65;;;6.90;99.90;;;;;;5057348;28;20034;-81
2023/11/04 00:11:46;;;;;;;3.90;1.60;;;6.90;99.90;;;;;;5045791;28;20407;-82
2023/11/04 00:14:13;;;;;;;6.25;1.67;;;6.90;99.90;;;;;;5059872;28;20069;-81
2023/11/04 00:16:39;;;;;;;6.05;1.60;;;6.90;99.90;;;;;;5045844;28;20063;-81
2023/11/04 00:19:06;;;;;;;5.72;1.98;;;6.90;99.90;;;;;;5049522;28;20405;-81
2023/11/04 00:21:33;;;;;;;3.80;1.35;;;6.90;99.90;;;;;;5064448;28;20041;-81
2023/11/04 00:24:00;;;;;;;4.75;1.55;;;6.90;99.90;;;;;;5051737;28;20069;-81
2023/11/04 00:26:27;;;;;;;4.53;1.52;;;6.90;99.90;;;;;;5055674;28;20053;-82
2023/11/04 00:28:54;;;;;;;6.78;1.50;;;6.90;99.90;;;;;;5034180;28;20414;-81
2023/11/04 00:31:20;;;;;;;3.42;1.30;;;7.20;99.90;;;;;;5049402;28;20045;-81
2023/11/04 00:33:48;;;;;;;5.15;1.60;;;6.90;99.90;;;;;;5040987;28;20037;-81
2023/11/04 00:36:14;;;;;;;2.60;1.45;;;7.00;99.90;;;;;;5031937;28;20042;-81
2023/11/04 00:38:41;;;;;;;4.13;1.42;;;7.30;99.90;;;;;;5049228;28;20041;-81
2023/11/04 00:41:08;;;;;;;6.55;1.80;;;6.80;99.90;;;;;;5071847;28;20029;-81
2023/11/04 00:43:36;;;;;;;3.88;1.50;;;6.80;99.90;;;;;;5065611;28;20116;-81
2023/11/04 00:46:02;;;;;;;3.50;1.58;;;6.80;99.90;;;;;;5038469;28;20069;-81
2023/11/04 00:48:29;;;;;;;5.00;1.30;;;6.70;99.90;;;;;;5046964;28;20078;-81
2023/11/04 00:50:56;;;;;;;7.53;1.58;;;6.80;99.90;;;;;;5054379;28;20381;-81
2023/11/04 00:53:23;;;;;;;2.97;1.50;;;6.70;99.90;;;;;;5052812;28;20046;-81
2023/11/04 00:55:49;;;;;;;3.35;1.48;;;6.90;99.90;;;;;;5069906;28;20576;-82
2023/11/04 00:58:16;;;;;;;4.50;1.55;;;6.70;99.90;;;;;;5053260;28;20068;-82
2023/11/04 01:00:42;;;;;;;4.65;1.50;;;6.70;99.90;;;;;;5069019;28;20045;-81
2023/11/04 01:03:09;;;;;;;2.55;1.25;;;7.30;99.90;;;;;;5043611;28;20476;-82
2023/11/04 01:05:36;;;;;;;2.90;1.30;;;7.30;99.90;;;;;;5052028;28;20127;-81
2023/11/04 01:08:03;;;;;;;2.58;1.10;;;6.80;99.90;;;;;;5042384;28;20128;-81
2023/11/04 01:10:30;;;;;;;2.60;1.35;;;6.70;99.90;;;;;;5049081;28;20096;-81
2023/11/04 01:12:56;;;;;;;3.40;1.30;;;6.80;99.90;;;;;;5039299;28;20053;-81
2023/11/04 01:15:23;;;;;;;2.72;1.25;;;6.70;99.90;;;;;;5037892;28;20408;-81
2023/11/04 01:17:50;;;;;;;4.10;1.23;;;6.80;99.90;;;;;;5037941;28;20042;-81
2023/11/04 01:20:17;;;;;;;3.53;1.33;;;6.90;99.90;;;;;;5055525;28;20044;-81
2023/11/04 01:22:44;;;;;;;3.78;1.20;;;6.90;99.90;;;;;;5048710;28;20103;-81
2023/11/04 01:25:10;;;;;;;4.57;1.38;;;7.00;99.90;;;;;;5052178;28;20041;-82
2023/11/04 01:27:37;;;;;;;2.75;1.30;;;7.10;99.90;;;;;;5038090;28;20050;-82
2023/11/04 01:30:04;;;;;;;2.08;1.10;;;7.10;99.90;;;;;;5060776;28;20495;-81
2023/11/04 01:32:30;;;;;;;4.35;1.30;;;7.10;99.90;;;;;;5044716;28;20419;-80
2023/11/04 01:34:58;;;;;;;2.47;1.13;;;7.20;99.90;;;;;;5042691;28;20107;-80
2023/11/04 01:37:25;;;;;;;4.65;2.08;;;7.20;99.90;;;;;;5052396;28;20042;-81
2023/11/04 01:39:54;;;;;;;5.32;1.63;;;7.20;99.90;;;;;;5056046;28;20403;-81
2023/11/04 01:42:21;;;;;;;4.20;1.27;;;7.30;99.90;;;;;;5039098;28;20041;-81
2023/11/04 01:44:47;;;;;;;4.20;1.30;;;7.30;99.90;;;;;;5041858;28;20040;-81
2023/11/04 01:47:14;;;;;;;4.00;1.23;;;7.80;99.90;;;;;;5047595;28;20125;-81
2023/11/04 01:49:41;;;;;;;3.20;1.35;;;7.40;99.90;;;;;;5051104;28;20120;-81
2023/11/04 01:52:09;;;;;;;2.92;1.08;;;7.40;99.90;;;;;;5043562;28;20393;-82
2023/11/04 01:54:37;;;;;;;3.22;1.40;;;7.50;99.90;;;;;;5048251;28;20053;-82
2023/11/04 01:57:04;;;;;;;3.63;1.30;;;7.40;99.90;;;;;;5037818;28;20034;-81
2023/11/04 01:59:31;;;;;;;4.25;1.02;;;7.50;99.90;;;;;;5067135;28;20072;-81
2023/11/04 02:01:59;;;;;;;3.53;1.00;;;7.50;99.90;;;;;;5050815;28;20451;-81
2023/11/04 02:04:28;;;;;;;3.13;1.13;;;8.20;99.90;;;;;;5042055;28;20041;-82
2023/11/04 02:06:54;;;;;;;3.92;1.23;;;8.00;99.90;;;;;;5051729;28;20038;-81
2023/11/04 02:09:21;;;;;;;3.08;1.20;;;7.50;99.90;;;;;;5071768;28;20063;-81
2023/11/04 02:11:48;;;;;;;4.72;1.40;;;7.60;99.90;;;;;;5071697;28;20506;-81
2023/11/04 02:14:14;;;;;;;4.13;1.20;;;7.80;99.90;;;;;;5071764;28;20453;-81
2023/11/04 02:16:41;;;;;;;3.33;1.20;;;7.90;99.90;;;;;;5053705;28;20466;-81
2023/11/04 02:19:07;;;;;;;3.90;1.10;;;8.00;99.90;;;;;;5067785;28;20410;-82
2023/11/04 02:21:34;;;;;;;3.40;1.10;;;7.70;99.90;;;;;;5045915;28;20041;-81
2023/11/04 02:24:01;;;;;;;2.40;1.20;;;7.70;99.90;;;;;;5055011;28;20487;-81
2023/11/04 02:26:28;;;;;;;1.75;1.08;;;7.70;99.90;;;;;;5061283;28;20050;-81
2023/11/04 02:28:54;;;;;;;3.30;1.40;;;7.70;99.90;;;;;;5051803;28;20041;-81
2023/11/04 02:31:21;;;;;;;3.33;1.50;;;8.00;99.90;;;;;;5046037;28;20046;-81
2023/11/04 02:33:48;;;;;;;3.75;1.25;;;7.80;99.90;;;;;;5054829;28;20123;-82
2023/11/04 02:36:14;;;;;;;2.92;1.10;;;7.80;99.90;;;;;;5068732;28;20487;-81
2023/11/04 02:38:41;;;;;;;7.22;1.33;;;7.80;99.90;;;;;;5051589;28;20041;-81
2023/11/04 02:41:08;;;;;;;4.07;1.50;;;7.80;99.90;;;;;;5047839;28;20087;-81
2023/11/04 02:43:34;;;;;;;3.13;1.10;;;8.10;99.90;;;;;;5044724;28;20116;-81
2023/11/04 02:46:01;;;;;;;3.83;1.30;;;7.80;99.90;;;;;;5070959;28;20048;-81
2023/11/04 02:48:28;;;;;;;4.32;1.60;;;7.80;99.90;;;;;;5044012;28;20037;-82
2023/11/04 02:50:55;;;;;;;4.55;1.35;;;7.80;99.90;;;;;;5052136;28;20039;-81
2023/11/04 02:53:22;;;;;;;3.67;1.30;;;7.90;99.90;;;;;;5051988;28;20402;-81
2023/11/04 02:55:48;;;;;;;3.30;1.60;;;7.90;99.90;;;;;;5052442;28;20037;-82
2023/11/04 02:58:15;;;;;;;2.40;1.25;;;8.30;99.90;;;;;;5054159;28;20099;-81
2023/11/04 03:00:41;;;;;;;5.95;1.50;;;7.90;99.90;;;;;;5069770;28;20107;-81
2023/11/04 03:03:09;;;;;;;5.43;1.65;;;7.90;99.90;;;;;;5070612;28;20121;-81
2023/11/04 03:05:36;;;;;;;4.20;1.70;;;7.90;99.90;;;;;;5044735;28;20046;-82
2023/11/04 03:08:03;;;;;;;4.28;1.70;;;7.90;99.90;;;;;;5062796;28;20049;-82
2023/11/04 03:10:30;;;;;;;4.53;1.70;;;7.90;99.90;;;;;;5037636;28;20044;-81
2023/11/04 03:12:56;;;;;;;5.32;1.60;;;8.00;99.90;;;;;;5051155;28;20407;-81
2023/11/04 03:15:23;;;;;;;6.63;2.08;;;8.00;99.90;;;;;;5050604;28;20051;-82
2023/11/04 03:17:50;;;;;;;8.48;1.70;;;8.00;99.90;;;;;;5067296;28;20038;-81
2023/11/04 03:20:16;;;;;;;5.20;1.80;;;8.00;99.90;;;;;;5038874;28;20038;-81
2023/11/04 03:22:43;;;;;;;4.00;1.85;;;8.00;99.90;;;;;;5063557;28;20034;-81
2023/11/04 03:25:12;;;;;;;4.50;1.88;;;8.00;99.90;;;;;;5048920;28;20124;-81
2023/11/04 03:27:38;;;;;;;3.90;1.73;;;8.20;99.90;;;;;;5046546;28;20050;-81
2023/11/04 03:30:06;;;;;;;3.45;1.63;;;8.00;99.90;;;;;;5062528;28;20503;-81
2023/11/04 03:32:32;;;;;;;3.38;1.60;;;8.00;99.90;;;;;;5055188;28;20042;-82
2023/11/04 03:34:59;;;;;;;3.78;1.77;;;8.10;99.90;;;;;;5045285;28;20385;-81
2023/11/04 03:37:25;;;;;;;4.90;1.88;;;8.30;99.90;;;;;;5042555;28;20033;-81
2023/11/04 03:39:56;;;;;;;4.97;1.67;;;8.10;99.90;;;;;;5061189;28;20050;-81
2023/11/04 03:42:23;;;;;;;7.90;1.98;;;8.10;99.90;;;;;;5029547;28;20576;-81
2023/11/04 03:44:50;;;;;;;5.43;1.67;;;8.40;99.90;;;;;;5037718;28;20140;-81
2023/11/04 03:47:16;;;;;;;6.97;1.98;;;8.10;99.90;;;;;;5065928;28;20045;-82
2023/11/04 03:49:43;;;;;;;3.58;1.75;;;8.10;99.90;;;;;;5049894;28;20107;-81
2023/11/04 03:52:10;;;;;;;5.70;2.05;;;8.10;99.90;;;;;;5053377;28;20043;-81
2023/11/04 03:54:36;;;;;;;5.15;1.83;;;8.10;99.90;;;;;;5049982;28;20045;-80
2023/11/04 03:57:03;;;;;;;3.22;1.50;;;8.10;99.90;;;;;;5067933;28;20033;-81
2023/11/04 03:59:29;;;;;;;4.72;1.73;;;8.20;99.90;;;;;;5067646;28;20041;-82
2023/11/04 04:01:56;;;;;;;4.68;1.77;;;8.10;99.90;;;;;;5056477;28;20045;-81
2023/11/04 04:04:23;;;;;;;3.42;1.67;;;8.20;99.90;;;;;;5040495;28;20041;-81
2023/11/04 04:06:52;;;;;;;5.28;1.88;;;8.10;99.90;;;;;;5046964;28;20492;-81
2023/11/04 04:09:18;;;;;;;4.95;2.00;;;8.10;99.90;;;;;;5056250;28;20041;-81
2023/11/04 04:11:45;;;;;;;4.82;1.77;;;8.20;99.90;;;;;;5061963;28;20365;-81
2023/11/04 04:14:11;;;;;;;5.28;1.90;;;8.40;99.90;;;;;;5053219;28;20091;-81
2023/11/04 04:16:38;;;;;;;5.40;2.10;;;8.80;99.90;;;;;;5057214;28;20088;-81
2023/11/04 04:19:05;;;;;;;3.17;1.52;;;8.10;99.90;;;;;;5038023;28;20471;-82
2023/11/04 04:21:31;;;;;;;4.72;2.55;;;8.90;99.90;;;;;;5054283;28;20041;-82
2023/11/04 04:23:58;;;;;;;4.47;1.80;;;8.10;99.90;;;;;;5055895;28;20033;-82
2023/11/04 04:26:25;;;;;;;5.72;1.80;;;8.20;99.90;;;;;;5072354;28;20056;-82
2023/11/04 04:28:51;;;;;;;7.85;2.17;;;8.50;99.90;;;;;;5073589;28;20504;-81
2023/11/04 04:31:18;;;;;;;5.35;2.00;;;8.20;99.90;;;;;;5041686;28;20491;-81
2023/11/04 04:33:45;;;;;;;5.70;2.05;;;8.10;99.90;;;;;;5045074;28;20088;-82
2023/11/04 04:36:12;;;;;;;4.38;1.92;;;8.70;99.90;;;;;;5072686;28;20052;-82
2023/11/04 04:38:38;;;;;;;6.93;2.05;;;8.10;99.90;;;;;;5046704;28;20041;-82
2023/11/04 04:41:05;;;;;;;4.45;1.98;;;8.20;99.90;;;;;;5038566;28;20045;-81
2023/11/04 04:43:32;;;;;;;5.30;2.00;;;8.20;99.90;;;;;;5036267;28;20034;-82
2023/11/04 04:46:00;;;;;;;6.47;2.33;;;8.10;99.90;;;;;;5054346;28;20132;-82
2023/11/04 04:48:27;;;;;;;6.90;2.13;;;8.20;99.90;;;;;;5061986;28;20050;-82
2023/11/04 04:50:54;;;;;;;3.55;1.80;;;8.20;99.90;;;;;;5054658;28;20048;-82
2023/11/04 04:53:24;;;;;;;3.72;2.08;;;8.20;99.90;;;;;;5055583;28;20064;-81
2023/11/04 04:55:53;;;;;;;4.32;2.05;;;8.20;99.90;;;;;;5036553;28;20038;-82
2023/11/04 04:58:21;;;;;;;4.55;2.03;;;8.20;99.90;;;;;;5048250;28;20033;-81
2023/11/04 05:00:48;;;;;;;5.25;1.88;;;8.20;99.90;;;;;;5058770;28;20049;-82
2023/11/04 05:03:14;;;;;;;5.72;2.10;;;8.20;99.90;;;;;;5069992;28;20468;-81
2023/11/04 05:05:41;;;;;;;3.83;1.90;;;8.30;99.90;;;;;;5055878;28;20045;-82
2023/11/04 05:08:08;;;;;;;3.90;1.92;;;8.20;99.90;;;;;;5058475;28;20033;-81
2023/11/04 05:10:34;;;;;;;4.53;2.00;;;8.20;99.90;;;;;;5048326;28;20041;-82
2023/11/04 05:13:02;;;;;;;4.30;1.90;;;8.20;99.90;;;;;;5054243;28;20057;-81
2023/11/04 05:15:28;;;;;;;4.07;1.92;;;8.20;99.90;;;;;;5035907;28;20507;-81
2023/11/04 05:17:55;;;;;;;7.18;2.33;;;8.30;99.90;;;;;;5044738;28;20053;-82
2023/11/04 05:20:22;;;;;;;6.88;1.90;;;8.20;99.90;;;;;;5048477;28;20479;-81
2023/11/04 05:22:48;;;;;;;4.47;1.98;;;8.20;99.90;;;;;;5072634;28;20034;-82
2023/11/04 05:25:15;;;;;;;5.32;2.00;;;8.30;99.90;;;;;;5071463;28;20042;-81
2023/11/04 05:27:41;;;;;;;4.32;1.83;;;8.30;99.90;;;;;;5072018;28;20041;-81
2023/11/04 05:30:10;;;;;;;4.25;1.80;;;8.80;99.90;;;;;;5075358;28;20065;-82
2023/11/04 05:32:37;;;;;;;7.15;2.08;;;8.20;99.90;;;;;;5055589;28;20045;-82
2023/11/04 05:35:04;;;;;;;3.65;1.60;;;8.50;99.90;;;;;;5037009;28;20081;-82
2023/11/04 05:37:31;;;;;;;6.13;1.75;;;8.30;99.90;;;;;;5062121;28;20372;-82
2023/11/04 05:39:57;;;;;;;6.57;2.15;;;8.80;99.90;;;;;;5069989;28;20037;-82
2023/11/04 05:42:24;;;;;;;5.13;1.92;;;8.30;99.90;;;;;;5038961;28;20499;-82
2023/11/04 05:44:53;;;;;;;4.13;2.03;;;8.90;99.90;;;;;;5056510;28;20053;-82
2023/11/04 05:47:20;;;;;;;4.93;2.25;;;8.30;99.90;;;;;;5052204;28;20044;-82
2023/11/04 05:49:47;;;;;;;4.85;1.90;;;8.50;99.90;;;;;;5068718;28;20029;-81
2023/11/04 05:52:13;;;;;;;3.95;1.70;;;8.30;99.90;;;;;;5050321;28;20034;-82
2023/11/04 05:54:40;;;;;;;6.38;1.85;;;8.40;99.90;;;;;;5048487;28;20045;-82
2023/11/04 05:57:07;;;;;;;4.38;1.58;;;8.30;99.90;;;;;;5055230;28;20032;-82
2023/11/04 05:59:33;;;;;;;5.40;1.63;;;8.40;99.90;;;;;;5051908;28;20033;-82
2023/11/04 06:02:00;;;;;;;4.38;1.80;;;8.90;99.90;;;;;;5068350;28;20495;-82
2023/11/04 06:04:30;;;;;;;5.05;1.70;;;8.40;99.90;;;;;;5046045;28;20065;-82
2023/11/04 06:06:56;;;;;;;4.00;1.70;;;8.70;99.90;;;;;;5039043;28;20110;-81
2023/11/04 06:09:23;;;;;;;5.78;1.80;;;8.40;99.90;;;;;;5055179;28;20040;-82
2023/11/04 06:11:49;;;;;;;6.80;1.67;;;8.40;99.90;;;;;;5059688;28;20565;-82
2023/11/04 06:14:16;;;;;;;5.10;1.90;;;9.00;99.90;;;;;;5063803;28;20037;-82
2023/11/04 06:16:43;;;;;;;4.38;2.08;;;8.40;99.90;;;;;;5058239;28;20079;-81
2023/11/04 06:19:10;;;;;;;3.95;1.70;;;8.40;99.90;;;;;;5055442;28;20049;-82
2023/11/04 06:21:36;;;;;;;3.72;1.73;;;8.40;99.90;;;;;;5061492;28;20095;-82
2023/11/04 06:24:03;;;;;;;3.15;1.60;;;8.40;99.90;;;;;;5064470;28;20773;-81
2023/11/04 06:26:30;;;;;;;5.18;2.20;;;8.40;99.90;;;;;;5052042;28;20045;-82
2023/11/04 06:28:56;;;;;;;4.32;1.90;;;8.50;99.90;;;;;;5043356;28;20063;-82
2023/11/04 06:31:23;;;;;;;4.68;1.60;;;8.40;99.90;;;;;;5077594;28;20502;-82
2023/11/04 06:33:50;;;;;;;4.53;2.00;;;8.40;99.90;;;;;;5049351;28;20055;-82
2023/11/04 06:36:16;;;;;;;3.80;1.80;;;8.40;99.90;;;;;;5070673;28;20052;-82
2023/11/04 06:38:43;;;;;;;5.07;1.88;;;8.40;99.90;;;;;;5054613;28;20462;-82
2023/11/04 06:41:16;;;;;;;5.60;1.70;;;8.40;99.90;;;;;;5054367;28;20063;-81
2023/11/04 06:43:44;;;;;;;9.40;2.00;;;8.60;99.90;;;;;;5054055;28;20043;-82
2023/11/04 06:46:11;;;;;;;6.88;1.77;;;8.40;99.90;;;;;;5056840;28;20384;-81
2023/11/04 06:48:38;;;;;;;6.22;1.98;;;8.40;99.90;;;;;;5050919;28;20083;-82
2023/11/04 06:51:05;;;;;;;5.70;1.70;;;8.80;99.90;;;;;;5041588;28;20092;-81
2023/11/04 06:53:32;;;;;;;3.60;1.70;;;8.40;99.90;;;;;;5047687;28;20053;-81
2023/11/04 06:56:00;;;;;;;4.95;1.70;;;8.40;99.90;;;;;;5046681;28;20068;-82
2023/11/04 06:58:27;;;;;;;4.78;1.80;;;8.50;99.90;;;;;;5036881;28;20498;-82
2023/11/04 07:00:54;;;;;;;5.82;1.80;;;8.40;99.90;;;;;;5039272;28;20187;-82
2023/11/04 07:03:21;;;;;;;4.25;1.80;;;8.80;99.90;;;;;;5039564;28;20037;-82
2023/11/04 07:05:48;;;;;;;3.95;1.98;;;8.50;99.90;;;;;;5049701;28;20041;-81
2023/11/04 07:08:15;;;;;;;3.17;1.80;;;8.50;99.90;;;;;;5060661;28;20044;-82
2023/11/04 07:10:45;;;;;;;3.47;1.80;;;8.50;99.90;;;;;;5059453;28;20045;-82
2023/11/04 07:13:13;;;;;;;3.72;1.92;;;8.60;99.90;;;;;;5061819;28;20044;-82
2023/11/04 07:15:44;;;;;;;12.07;1.92;;;8.50;99.90;;;;;;5048886;28;20072;-82
2023/11/04 07:18:13;;;;;;;4.05;1.90;;;9.10;99.90;;;;;;5042267;28;20044;-82
2023/11/04 07:20:40;;;;;;;3.95;1.88;;;8.60;99.90;;;;;;5045210;28;20112;-82
2023/11/04 07:23:07;;;;;;;3.90;1.80;;;8.60;99.90;;;;;;5044769;28;20041;-82
2023/11/04 07:25:34;;;;;;;5.15;2.00;;;8.80;99.90;;;;;;5046498;28;20404;-81
2023/11/04 07:28:01;;;;;;;4.03;1.80;;;9.20;99.90;;;;;;5066500;28;20392;-82
2023/11/04 07:30:27;;;;;;;4.28;1.73;;;8.60;99.90;;;;;;5046904;28;20044;-82
2023/11/04 07:32:54;;;;;;;6.22;2.05;;;8.60;99.90;;;;;;5046175;28;20135;-82
2023/11/04 07:35:21;;;;;;;4.13;1.90;;;8.60;99.90;;;;;;5059959;28;20037;-82
2023/11/04 07:37:47;;;;;;;4.38;1.85;;;9.10;99.90;;;;;;5043531;28;20033;-82
2023/11/04 07:40:16;;;;;;;5.35;2.13;;;9.00;99.90;;;;;;5057914;28;20499;-82
2023/11/04 07:42:44;;;;;;;3.50;1.90;;;9.20;99.90;;;;;;5072822;28;20038;-82
2023/11/04 07:45:11;;;;;;;4.72;1.80;;;8.80;99.90;;;;;;5045196;28;20042;-81
2023/11/04 07:47:43;;;;;;;3.13;2.00;;;9.20;99.90;;;;;;5045922;28;20049;-81
2023/11/04 07:50:10;;;;;;;3.20;2.00;;;8.70;99.90;;;;;;5061173;28;20049;-82
2023/11/04 07:52:37;;;;;;;3.78;1.90;;;8.70;99.90;;;;;;5047169;28;20546;-81
2023/11/04 07:55:08;;;;;;;3.72;2.10;;;8.80;99.90;;;;;;5047688;28;20052;-82
2023/11/04 07:57:38;;;;;;;4.50;2.13;;;8.70;99.90;;;;;;5046298;28;20030;-82
2023/11/04 08:00:07;;;;;;;3.55;1.98;;;8.70;99.90;;;;;;5051652;28;20049;-83
2023/11/04 08:02:37;;;;;;;4.70;1.95;;;8.70;99.90;;;;;;5046429;28;20784;-82
2023/11/04 08:05:05;;;;;;;4.93;2.10;;;8.80;99.90;;;;;;5037112;28;20081;-82
2023/11/04 08:07:31;;;;;;;5.60;2.08;;;8.80;99.90;;;;;;5054911;28;20048;-81
2023/11/04 08:10:03;;;;;;;3.92;2.08;;;8.90;99.90;;;;;;5047707;28;20415;-82
2023/11/04 08:12:30;;;;;;;3.53;2.03;;;8.90;99.90;;;;;;5048622;28;20052;-81
2023/11/04 08:15:00;;;;;;;4.70;2.20;;;9.00;99.90;;;;;;5058382;28;20055;-81
2023/11/04 08:17:27;;;;;;;4.85;2.08;;;9.00;99.90;;;;;;5027034;28;20073;-81
2023/11/04 08:19:54;;;;;;;4.72;2.40;;;9.00;99.90;;;;;;5062862;28;20076;-82
2023/11/04 08:22:21;;;;;;;5.18;2.17;;;9.00;99.90;;;;;;5046044;28;20191;-82
2023/11/04 08:24:47;;;;;;;4.97;2.45;;;9.00;99.90;;;;;;5063841;28;20041;-84
2023/11/04 08:27:14;;;;;;;4.13;2.05;;;9.10;99.90;;;;;;5042550;28;20038;-82
2023/11/04 08:29:41;;;;;;;6.38;2.30;;;9.30;99.90;;;;;;5033873;28;20038;-81
2023/11/04 08:32:08;;;;;;;11.13;2.60;;;9.60;99.90;;;;;;5054313;28;20060;-81
2023/11/04 08:34:37;;;;;;;5.93;2.38;;;9.10;99.90;;;;;;5037699;28;20046;-81
2023/11/04 08:37:04;;;;;;;4.30;2.30;;;9.30;99.90;;;;;;5065182;28;20046;-81
2023/11/04 08:39:30;;;;;;;4.85;2.38;;;10.00;99.90;;;;;;5028908;28;20042;-82
2023/11/04 08:42:02;;;;;;;5.32;2.10;;;9.40;99.90;;;;;;5065118;28;20043;-82
2023/11/04 08:44:29;;;;;;;4.63;2.30;;;9.50;99.90;;;;;;5041974;28;20049;-81
2023/11/04 08:46:56;;;;;;;4.20;2.30;;;10.10;99.90;;;;;;5055438;28;20037;-80
2023/11/04 08:49:22;;;;;;;6.90;2.30;;;9.70;99.90;;;;;;5045747;28;20045;-87
2023/11/04 08:51:49;;;;;;;4.55;2.28;;;9.70;99.90;;;;;;5049803;28;20052;-87
2023/11/04 08:54:16;;;;;;;8.05;2.45;;;10.30;99.90;;;;;;5046922;28;20037;-87
2023/11/04 08:56:43;;;;;;;5.05;2.42;;;9.70;99.90;;;;;;5049138;28;20046;-87
2023/11/04 08:59:09;;;;;;;6.00;2.03;;;9.40;99.90;;;;;;5045560;28;20037;-87
2023/11/04 09:01:36;;;;;;;5.00;2.25;;;9.80;99.90;;;;;;5044251;28;20053;-87
2023/11/04 09:04:03;;;;;;;6.45;2.00;;;10.10;99.90;;;;;;5044398;28;20060;-87
2023/11/04 09:06:32;;;;;;;5.53;1.92;;;9.80;99.90;;;;;;5040842;28;20049;-87
2023/11/04 09:09:00;;;;;;;3.65;1.77;;;9.80;99.90;;;;;;5051266;28;20038;-87
2023/11/04 09:11:27;;;;;;;9.27;2.30;;;9.80;99.90;;;;;;5030814;28;20491;-88
2023/11/04 09:13:54;;;;;;;5.63;1.95;;;9.80;99.90;;;;;;5039476;28;20068;-87
2023/11/04 09:16:20;;;;;;;4.25;1.63;;;9.70;99.90;;;;;;5046096;28;20042;-86
2023/11/04 09:18:47;;;;;;;5.03;1.83;;;9.80;99.90;;;;;;5038450;28;20045;-87
2023/11/04 09:21:14;;;;;;;5.07;1.77;;;9.90;99.90;;;;;;5041253;28;20037;-87
2023/11/04 09:23:41;;;;;;;7.22;1.83;;;9.70;99.90;;;;;;5062325;28;20039;-87
2023/11/04 09:26:09;;;;;;;8.57;1.77;;;9.80;99.90;;;;;;5056486;28;20048;-86
2023/11/04 09:28:36;;;;;;;6.75;1.90;;;9.80;99.90;;;;;;5072684;28;20044;-87
2023/11/04 09:31:03;;;;;;;4.65;1.80;;;10.10;99.90;;;;;;5054653;28;20041;-87
2023/11/04 09:33:34;;;;;;;6.18;2.13;;;10.00;99.90;;;;;;5042837;28;20040;-87
2023/11/04 09:36:02;;;;;;;6.22;1.88;;;10.10;99.90;;;;;;5055710;28;20041;-87
2023/11/04 09:38:29;;;;;;;5.30;1.80;;;10.20;99.90;;;;;;5055596;28;20422;-87
2023/11/04 09:40:56;;;;;;;6.72;1.58;;;10.20;99.90;;;;;;5059335;28;20389;-87
2023/11/04 09:43:23;;;;;;;4.03;1.48;;;10.20;99.90;;;;;;5072627;28;20032;-87
2023/11/04 09:45:50;;;;;;;4.68;1.80;;;10.20;99.90;;;;;;5072334;28;20053;-87
2023/11/04 09:48:17;;;;;;;5.13;1.60;;;10.70;99.90;;;;;;5055530;28;20052;-86
2023/11/04 09:50:44;;;;;;;4.72;1.60;;;10.20;99.90;;;;;;5042922;28;20039;-87
2023/11/04 09:53:21;;;;;;;4.18;1.45;;;10.20;99.90;;;;;;5052451;28;20128;-87
2023/11/04 09:55:51;;;;;;;3.83;1.50;;;10.30;99.90;;;;;;5049112;28;20102;-87
2023/11/04 09:58:19;;;;;;;3.03;1.38;;;10.50;99.90;;;;;;5035974;28;20050;-87
2023/11/04 10:00:46;;;;;;;4.20;1.60;;;10.20;99.90;;;;;;5057675;28;20068;-87
2023/11/04 10:03:13;;;;;;;5.03;1.50;;;10.20;99.90;;;;;;5043819;28;20041;-86
2023/11/04 10:05:40;;;;;;;6.25;1.65;;;10.20;99.90;;;;;;5054125;28;20091;-87
2023/11/04 10:08:06;;;;;;;6.38;1.60;;;10.20;99.90;;;;;;5041433;28;20041;-87
2023/11/04 10:10:33;;;;;;;6.35;1.52;;;10.80;99.90;;;;;;5035725;28;20042;-87
2023/11/04 10:13:00;;;;;;;5.18;1.73;;;10.40;99.90;;;;;;5035974;28;20495;-87
2023/11/04 10:15:27;;;;;;;3.35;1.42;;;10.50;99.90;;;;;;5052242;28;20057;-87
2023/11/04 10:17:54;;;;;;;3.90;1.40;;;10.60;99.90;;;;;;5045320;28;20403;-87
2023/11/04 10:20:22;;;;;;;3.47;1.42;;;10.50;99.90;;;;;;5054755;28;20462;-86
2023/11/04 10:22:49;;;;;;;4.80;1.60;;;10.70;99.90;;;;;;5055100;28;20064;-85
2023/11/04 10:25:16;;;;;;;8.02;1.83;;;10.50;99.90;;;;;;5042340;28;20045;-84
2023/11/04 10:27:42;;;;;;;3.75;1.30;;;10.60;99.90;;;;;;5071850;28;20079;-85
2023/11/04 10:30:10;;;;;;;5.55;1.42;;;10.60;99.90;;;;;;5055226;28;20040;-85
2023/11/04 10:32:38;;;;;;;4.10;1.48;;;10.60;99.90;;;;;;5055025;28;20041;-84
2023/11/04 10:35:12;;;;;;;3.72;1.40;;;11.00;99.90;;;;;;5035708;28;20041;-84
2023/11/04 10:37:43;;;;;;;3.17;1.55;;;10.70;99.90;;;;;;5049476;28;20403;-84
2023/11/04 10:40:12;;;;;;;4.78;1.63;;;10.70;99.90;;;;;;5055271;28;20036;-84
2023/11/04 10:42:48;;;;;;;4.78;1.70;;;10.70;99.90;;;;;;5054786;28;20041;-86
2023/11/04 10:45:26;;;;;;;3.65;1.40;;;10.70;99.90;;;;;;5054999;28;20041;-86
2023/11/04 10:48:03;;;;;;;4.57;1.52;;;10.60;99.90;;;;;;5071666;28;20036;-85
2023/11/04 10:50:39;;;;;;;4.03;1.30;;;10.70;99.90;;;;;;5054813;28;20052;-86
2023/11/04 10:53:11;;;;;;;3.58;1.20;;;10.70;99.90;;;;;;5054939;28;20403;-86
2023/11/04 10:55:46;;;;;;;2.97;1.30;;;10.60;99.90;;;;;;5050888;28;20045;-85
2023/11/04 10:58:21;;;;;;;4.72;1.30;;;10.60;99.90;;;;;;5046234;28;20037;-86
2023/11/04 11:00:50;;;;;;;5.28;1.33;;;10.40;99.90;;;;;;5070803;28;20107;-85
2023/11/04 11:03:18;;;;;;;3.40;0.98;;;10.40;99.90;;;;;;5058161;28;20495;-86
2023/11/04 11:05:45;;;;;;;3.25;1.10;;;11.10;99.90;;;;;;5053944;28;20033;-85
2023/11/04 11:08:12;;;;;;;3.35;1.42;;;11.00;99.90;;;;;;5034462;28;20557;-86
2023/11/04 11:10:46;;;;;;;1.83;1.00;;;10.30;99.90;;;;;;5034736;28;20041;-86
2023/11/04 11:13:21;;;;;;;4.45;1.20;;;10.30;99.90;;;;;;5019219;28;20092;-86
2023/11/04 11:15:48;;;;;;;4.13;1.30;;;10.20;99.90;;;;;;5051675;28;20052;-86
2023/11/04 11:18:26;;;;;;;4.22;1.20;;;10.20;99.90;;;;;;5054379;28;20123;-86
2023/11/04 11:20:52;;;;;;;2.70;1.27;;;10.40;99.90;;;;;;5054300;28;20071;-86
2023/11/04 11:23:26;;;;;;;7.22;1.75;;;10.20;99.90;;;;;;5032253;28;20076;-86
2023/11/04 11:26:06;;;;;;;6.88;1.55;;;10.50;99.90;;;;;;5048948;28;20441;-86
2023/11/04 11:28:36;;;;;;;3.72;1.50;;;10.30;99.90;;;;;;5054516;28;20037;-86
2023/11/04 11:31:08;;;;;;;2.65;1.00;;;10.30;99.90;;;;;;5041073;28;20033;-86
2023/11/04 11:33:34;;;;;;;3.95;1.15;;;10.40;99.90;;;;;;5041781;28;20041;-85
2023/11/04 11:36:13;;;;;;;2.75;1.00;;;10.80;99.90;;;;;;5054620;28;20055;-85
2023/11/04 11:38:40;;;;;;;2.65;0.98;;;10.70;99.90;;;;;;5053842;28;20083;-86
2023/11/04 11:41:10;;;;;;;3.25;1.58;;;10.80;99.90;;;;;;5061952;28;20072;-86
2023/11/04 11:43:37;;;;;;;3.53;1.27;;;11.00;99.90;;;;;;5050267;28;20509;-86
2023/11/04 11:46:05;;;;;;;5.47;1.25;;;11.10;99.90;;;;;;5051975;28;20127;-86
2023/11/04 11:48:39;;;;;;;2.70;1.05;;;11.20;99.90;;;;;;5050573;28;20160;-85
2023/11/04 11:51:11;;;;;;;4.22;1.23;;;11.60;99.90;;;;;;5051803;28;20041;-86
2023/11/04 11:53:41;;;;;;;3.83;1.10;;;11.80;99.90;;;;;;5038767;28;20052;-86
2023/11/04 11:56:08;;;;;;;2.38;0.85;;;11.30;99.90;;;;;;5039746;28;20044;-86
2023/11/04 11:58:35;;;;;;;3.70;1.08;;;11.30;99.90;;;;;;5039038;28;20041;-86
2023/11/04 12:01:06;;;;;;;2.08;1.10;;;11.30;99.90;;;;;;5051653;28;20052;-85
2023/11/04 12:03:35;;;;;;;2.40;1.02;;;11.20;99.90;;;;;;5041579;28;20042;-86
2023/11/04 12:06:02;;;;;;;2.80;0.95;;;11.10;99.90;;;;;;5038548;28;20518;-85
2023/11/04 12:08:29;;;;;;;2.80;0.93;;;11.10;99.90;;;;;;5040302;28;20495;-86
2023/11/04 12:10:55;;;;;;;2.83;0.90;;;11.00;99.90;;;;;;5043374;28;20048;-86
2023/11/04 12:13:22;;;;;;;2.10;0.88;;;11.00;99.90;;;;;;5052878;28;20499;-86
2023/11/04 12:15:48;;;;;;;2.25;0.90;;;10.90;99.90;;;;;;5059129;28;20092;-85
2023/11/04 12:18:16;;;;;;;3.13;1.00;;;10.90;99.90;;;;;;5058324;28;20507;-86
2023/11/04 12:20:44;;;;;;;4.07;1.65;;;11.40;99.90;;;;;;5037755;28;20044;-85
2023/11/04 12:23:12;;;;;;;2.65;0.90;;;10.90;99.90;;;;;;5043167;28;20036;-86
2023/11/04 12:25:42;;;;;;;2.95;0.85;;;10.90;99.90;;;;;;5052902;28;20041;-86
2023/11/04 12:28:09;;;;;;;2.00;1.00;;;11.00;99.90;;;;;;5043949;28;20041;-86
2023/11/04 12:30:36;;;;;;;2.95;0.88;;;11.10;99.90;;;;;;5041394;28;20037;-86
2023/11/04 12:33:03;;;;;;;2.95;1.00;;;11.00;99.90;;;;;;5041490;28;20042;-85
2023/11/04 12:35:30;;;;;;;2.00;0.90;;;11.10;99.90;;;;;;5049048;28;20048;-86
2023/11/04 12:38:00;;;;;;;1.98;0.80;;;11.00;99.90;;;;;;5037950;28;20041;-85
2023/11/04 12:40:30;;;;;;;1.30;0.70;;;11.00;99.90;;;;;;5053316;28;20096;-85
2023/11/04 12:43:02;;;;;;;3.05;0.80;;;11.00;99.90;;;;;;5051754;28;20415;-85
2023/11/04 12:45:29;;;;;;;1.90;0.82;;;11.00;99.90;;;;;;5043903;28;20045;-85
2023/11/04 12:47:56;;;;;;;2.08;0.90;;;10.90;99.90;;;;;;5044662;28;20402;-85
2023/11/04 12:50:22;;;;;;;3.22;0.98;;;10.90;99.90;;;;;;5053305;28;20128;-86
2023/11/04 12:52:52;;;;;;;1.95;0.90;;;10.90;99.90;;;;;;5046257;28;20049;-85
2023/11/04 12:55:18;;;;;;;1.48;0.70;;;11.10;99.90;;;;;;5045894;28;20037;-86
2023/11/04 12:57:45;;;;;;;2.33;1.17;;;10.80;99.90;;;;;;5050458;28;20100;-86